createdAt,value
2019-04-10T00:01:19.630Z,44.27
2019-04-10T00:03:49.029Z,45.33
2019-04-10T00:06:18.661Z,40.35
2019-04-10T00:08:48.132Z,45.73
2019-04-10T00:11:18.390Z,50.55
2019-04-10T00:13:48.974Z,51.98
2019-04-10T00:16:18.445Z,53.65
2019-04-10T00:18:48.445Z,56.80
2019-04-10T00:21:17.861Z,55.78
2019-04-10T00:23:47.196Z,62.20
2019-04-10T00:26:17.422Z,60.25
2019-04-10T00:28:47.987Z,60.17
2019-04-10T00:31:18.364Z,64.50
2019-04-10T00:33:47.685Z,65.70
2019-04-10T00:36:18.237Z,69.07
2019-04-10T00:38:48.305Z,75.67
2019-04-10T00:41:17.772Z,76.92
2019-04-10T00:43:47.161Z,77.30
2019-04-10T00:46:16.544Z,80.47
2019-04-10T00:48:46.135Z,86.35
2019-04-10T00:51:15.459Z,81.02
2019-04-10T00:53:45.553Z,79.55
2019-04-10T00:56:14.977Z,87.60
2019-04-10T00:58:44.320Z,83.50
2019-04-10T01:01:13.918Z,80.17
2019-04-10T01:03:43.897Z,85.40
2019-04-10T01:06:14.277Z,79.80
2019-04-10T01:08:44.627Z,86.42
2019-04-10T01:11:15.041Z,81.32
2019-04-10T01:13:45.371Z,81.80
2019-04-10T01:16:16.284Z,88.50
2019-04-10T01:18:45.811Z,82.08
2019-04-10T01:21:16.269Z,80.32
2019-04-10T01:23:45.557Z,82.25
2019-04-10T01:26:15.013Z,86.72
2019-04-10T01:28:45.077Z,80.35
2019-04-10T01:31:15.726Z,78.55
2019-04-10T01:33:46.070Z,77.20
2019-04-10T01:36:15.841Z,76.20
2019-04-10T01:38:46.067Z,77.58
2019-04-10T01:41:15.625Z,77.03
2019-04-10T01:43:44.927Z,75.32
2019-04-10T01:46:14.241Z,79.10
2019-04-10T01:48:43.997Z,80.32
2019-04-10T01:51:13.463Z,78.40
2019-04-10T01:53:44.066Z,86.47
2019-04-10T01:56:23.946Z,77.87
2019-04-10T01:58:47.577Z,75.72
2019-04-10T02:01:28.374Z,78.65
2019-04-10T02:03:58.492Z,71.60
2019-04-10T02:06:27.952Z,73.65
2019-04-10T02:08:58.270Z,77.17
2019-04-10T02:11:28.085Z,74.87
2019-04-10T02:13:58.248Z,72.08
2019-04-10T02:16:27.745Z,79.05
2019-04-10T02:18:57.719Z,75.50
2019-04-10T02:21:27.523Z,80.40
2019-04-10T02:23:56.970Z,75.83
2019-04-10T02:26:26.290Z,72.30
2019-04-10T02:28:55.632Z,81.72
2019-04-10T02:31:26.401Z,77.37
2019-04-10T02:33:58.035Z,73.02
2019-04-10T02:36:29.229Z,72.55
2019-04-10T02:39:08.780Z,71.60
2019-04-10T02:41:29.879Z,73.52
2019-04-10T02:43:59.957Z,73.47
2019-04-10T02:46:31.282Z,69.37
2019-04-10T02:49:00.562Z,69.00
2019-04-10T02:51:30.662Z,77.87
2019-04-10T02:54:00.410Z,76.75
2019-04-10T02:56:30.803Z,77.65
2019-04-10T02:59:00.365Z,78.00
2019-04-10T03:01:29.667Z,71.20
2019-04-10T03:03:59.342Z,73.67
2019-04-10T03:06:29.279Z,76.95
2019-04-10T03:09:16.323Z,76.97
2019-04-10T03:11:31.304Z,81.87
2019-04-10T03:14:01.661Z,74.62
2019-04-10T03:16:31.844Z,75.97
2019-04-10T03:19:01.243Z,74.70
2019-04-10T03:21:31.279Z,75.35
2019-04-10T03:24:00.735Z,77.90
2019-04-10T03:26:30.058Z,79.70
2019-04-10T03:28:59.708Z,72.97
2019-04-10T03:31:30.095Z,76.82
2019-04-10T03:34:08.201Z,77.60
2019-04-10T03:36:40.807Z,81.78
2019-04-10T03:39:10.631Z,79.92
2019-04-10T03:41:40.226Z,86.67
2019-04-10T03:44:10.306Z,75.97
2019-04-10T03:46:40.105Z,79.35
2019-04-10T03:49:09.751Z,76.47
2019-04-10T03:51:39.064Z,85.62
2019-04-10T03:54:09.454Z,74.45
2019-04-10T03:56:38.775Z,77.92
2019-04-10T03:59:08.403Z,78.22
2019-04-10T04:01:38.846Z,78.55
2019-04-10T04:04:09.107Z,83.95
2019-04-10T04:06:39.749Z,78.10
2019-04-10T04:09:11.977Z,78.75
2019-04-10T04:11:41.975Z,78.75
2019-04-10T04:14:12.342Z,78.90
2019-04-10T04:16:41.769Z,81.87
2019-04-10T04:19:11.110Z,81.92
2019-04-10T04:21:40.405Z,80.90
2019-04-10T04:24:09.720Z,82.10
2019-04-10T04:26:40.107Z,77.85
2019-04-10T04:29:09.717Z,82.37
2019-04-10T04:31:40.033Z,83.92
2019-04-10T04:34:10.015Z,77.65
2019-04-10T04:36:40.865Z,75.47
2019-04-10T04:39:20.886Z,81.12
2019-04-10T04:41:42.935Z,80.53
2019-04-10T04:44:12.419Z,78.47
2019-04-10T04:46:42.826Z,82.60
2019-04-10T04:49:12.338Z,79.72
2019-04-10T04:51:43.765Z,83.40
2019-04-10T04:54:13.202Z,83.22
2019-04-10T04:56:42.598Z,82.15
2019-04-10T04:59:12.160Z,84.05
2019-04-10T05:01:42.511Z,82.85
2019-04-10T05:04:13.058Z,86.92
2019-04-10T05:06:43.642Z,85.47
2019-04-10T05:09:17.051Z,82.20
2019-04-10T05:11:44.787Z,86.28
2019-04-10T05:14:15.271Z,83.62
2019-04-10T05:16:45.650Z,86.92
2019-04-10T05:19:15.084Z,86.17
2019-04-10T05:21:45.349Z,86.08
2019-04-10T05:24:15.801Z,83.47
2019-04-10T05:26:45.292Z,82.55
2019-04-10T05:29:15.397Z,84.52
2019-04-10T05:31:44.813Z,88.65
2019-04-10T05:34:14.137Z,88.20
2019-04-10T05:36:47.054Z,89.25
2019-04-10T05:39:16.842Z,89.07
2019-04-10T05:41:47.092Z,83.67
2019-04-10T05:44:17.972Z,88.00
2019-04-10T05:46:47.579Z,83.47
2019-04-10T05:49:17.173Z,85.75
2019-04-10T05:51:46.593Z,86.20
2019-04-10T05:54:17.035Z,89.80
2019-04-10T05:56:46.965Z,83.82
2019-04-10T05:59:16.487Z,90.25
2019-04-10T06:01:45.865Z,90.20
2019-04-10T06:04:15.194Z,82.88
2019-04-10T06:06:44.506Z,78.10
2019-04-10T06:09:14.295Z,75.22
2019-04-10T06:11:45.385Z,84.13
2019-04-10T06:14:16.358Z,88.53
2019-04-10T06:16:45.934Z,83.27
2019-04-10T06:19:15.804Z,81.10
2019-04-10T06:21:46.232Z,83.72
2019-04-10T06:24:16.775Z,83.25
2019-04-10T06:26:46.062Z,77.12
2019-04-10T06:29:15.393Z,76.95
2019-04-10T06:31:45.096Z,76.05
2019-04-10T06:34:17.579Z,76.42
2019-04-10T06:36:45.979Z,76.35
2019-04-10T06:39:16.455Z,76.17
2019-04-10T06:41:46.736Z,70.47
2019-04-10T06:44:17.380Z,72.55
2019-04-10T06:46:46.938Z,71.12
2019-04-10T06:49:16.483Z,69.10
2019-04-10T06:51:45.912Z,67.82
2019-04-10T06:54:16.326Z,67.90
2019-04-10T06:56:48.294Z,67.70
2019-04-10T06:59:16.901Z,69.92
2019-04-10T07:01:52.283Z,63.10
2019-04-10T07:04:19.269Z,61.85
2019-04-10T07:06:58.127Z,68.65
2019-04-10T07:09:24.491Z,62.23
2019-04-10T07:11:59.336Z,59.60
2019-04-10T07:14:25.113Z,61.90
2019-04-10T07:16:54.873Z,60.17
2019-04-10T07:19:26.167Z,61.85
2019-04-10T07:21:58.432Z,56.15
2019-04-10T07:24:27.099Z,59.33
2019-04-10T07:26:58.107Z,54.38
2019-04-10T07:29:29.319Z,51.83
2019-04-10T07:31:58.813Z,50.73
2019-04-10T07:34:29.885Z,50.50
2019-04-10T07:37:00.135Z,52.55
2019-04-10T07:39:32.506Z,50.05
2019-04-10T07:42:00.708Z,51.95
2019-04-10T07:44:30.041Z,47.65
2019-04-10T07:47:00.756Z,45.92
2019-04-10T07:49:31.369Z,47.45
2019-04-10T07:52:02.508Z,50.58
2019-04-10T07:54:33.047Z,47.08
2019-04-10T07:57:02.562Z,45.88
2019-04-10T07:59:31.991Z,51.53
2019-04-10T08:02:21.155Z,47.60
2019-04-10T08:04:51.780Z,44.83
2019-04-10T08:07:29.445Z,44.60
2019-04-10T08:09:52.222Z,43.33
2019-04-10T08:12:21.543Z,42.38
2019-04-10T08:14:51.866Z,42.27
2019-04-10T08:17:21.783Z,43.35
2019-04-10T08:19:51.216Z,41.20
2019-04-10T08:22:20.584Z,40.88
2019-04-10T08:24:49.880Z,43.48
2019-04-10T08:27:19.368Z,40.67
2019-04-10T08:29:48.682Z,42.30
2019-04-10T08:32:18.191Z,41.33
2019-04-10T08:34:48.791Z,38.00
2019-04-10T08:37:18.925Z,39.53
2019-04-10T08:39:49.814Z,39.78
2019-04-10T08:42:19.365Z,42.93
2019-04-10T08:44:48.810Z,41.45
2019-04-10T08:47:19.294Z,42.25
2019-04-10T08:49:49.469Z,39.38
2019-04-10T08:52:19.894Z,41.63
2019-04-10T08:54:49.313Z,41.25
2019-04-10T08:57:19.321Z,41.23
2019-04-10T08:59:48.979Z,43.90
2019-04-10T09:02:18.383Z,41.58
2019-04-10T09:04:48.899Z,39.27
2019-04-10T09:07:18.501Z,45.25
2019-04-10T09:09:48.020Z,36.10
2019-04-10T09:12:17.811Z,38.17
2019-04-10T09:14:47.562Z,37.75
2019-04-10T09:17:17.408Z,39.48
2019-04-10T09:19:47.886Z,36.13
2019-04-10T09:22:17.246Z,35.52
2019-04-10T09:24:46.778Z,35.92
2019-04-10T09:27:17.192Z,33.80
2019-04-10T09:29:46.556Z,32.40
2019-04-10T09:32:15.996Z,36.58
2019-04-10T09:34:46.655Z,33.60
2019-04-10T09:37:17.691Z,35.23
2019-04-10T09:39:47.941Z,40.67
2019-04-10T09:42:19.123Z,34.15
2019-04-10T09:44:48.686Z,35.63
2019-04-10T09:47:18.994Z,35.03
2019-04-10T09:49:49.246Z,35.70
2019-04-10T09:52:18.738Z,40.55
2019-04-10T09:54:48.941Z,36.08
2019-04-10T09:57:20.151Z,33.18
2019-04-10T09:59:49.597Z,32.05
2019-04-10T10:02:19.615Z,31.77
2019-04-10T10:04:50.610Z,33.05
2019-04-10T10:07:20.702Z,31.90
2019-04-10T10:09:51.439Z,33.28
2019-04-10T10:12:20.805Z,35.52
2019-04-10T10:14:50.101Z,32.25
2019-04-10T10:17:20.316Z,32.73
2019-04-10T10:19:53.417Z,30.55
2019-04-10T10:22:23.104Z,29.55
2019-04-10T10:24:53.104Z,31.50
2019-04-10T10:27:23.369Z,32.05
2019-04-10T10:29:53.560Z,29.77
2019-04-10T10:32:24.716Z,35.90
2019-04-10T10:34:55.262Z,32.98
2019-04-10T10:37:24.639Z,33.73
2019-04-10T10:39:54.876Z,32.80
2019-04-10T10:42:24.381Z,28.50
2019-04-10T10:44:54.399Z,35.88
2019-04-10T10:47:24.153Z,31.93
2019-04-10T10:49:53.570Z,30.75
2019-04-10T10:52:23.688Z,35.95
2019-04-10T10:54:53.517Z,37.95
2019-04-10T10:57:22.975Z,28.92
2019-04-10T10:59:52.282Z,30.62
2019-04-10T11:02:21.600Z,30.08
2019-04-10T11:04:51.688Z,28.15
2019-04-10T11:07:21.215Z,30.75
2019-04-10T11:09:50.515Z,29.57
2019-04-10T11:12:22.050Z,34.10
2019-04-10T11:14:52.284Z,29.23
2019-04-10T11:17:22.230Z,27.20
2019-04-10T11:19:53.174Z,27.67
2019-04-10T11:22:25.405Z,27.90
2019-04-10T11:24:53.735Z,28.47
2019-04-10T11:27:23.102Z,31.82
2019-04-10T11:29:53.399Z,27.87
2019-04-10T11:32:23.913Z,30.25
2019-04-10T11:34:55.005Z,34.43
2019-04-10T11:37:36.676Z,31.42
2019-04-10T11:39:56.237Z,27.13
2019-04-10T11:42:26.513Z,28.38
2019-04-10T11:44:56.907Z,25.77
2019-04-10T11:47:26.758Z,30.48
2019-04-10T11:49:59.317Z,31.12
2019-04-10T11:52:36.372Z,28.50
2019-04-10T11:55:06.765Z,27.50
2019-04-10T11:57:32.467Z,25.43
2019-04-10T12:00:04.203Z,27.95
2019-04-10T12:02:34.373Z,25.23
2019-04-10T12:08:04.750Z,24.52
2019-04-10T12:12:40.441Z,26.77
2019-04-10T12:15:10.225Z,25.15
2019-04-10T12:17:40.199Z,25.00
2019-04-10T12:20:09.820Z,26.75
2019-04-10T12:22:39.143Z,25.77
2019-04-10T12:25:10.649Z,25.60
2019-04-10T12:27:41.117Z,30.88
2019-04-10T12:30:11.541Z,25.92
2019-04-10T12:32:41.103Z,23.30
2019-04-10T12:35:10.934Z,22.58
2019-04-10T12:37:41.379Z,20.68
2019-04-10T12:40:11.849Z,21.45
2019-04-10T12:42:41.405Z,24.40
2019-04-10T12:45:11.433Z,23.32
2019-04-10T12:47:41.994Z,23.07
2019-04-10T12:50:12.176Z,23.20
2019-04-10T12:52:41.617Z,21.97
2019-04-10T12:55:12.229Z,20.62
2019-04-10T12:57:41.684Z,24.05
2019-04-10T13:00:15.895Z,21.20
2019-04-10T13:02:45.497Z,20.17
2019-04-10T13:05:14.968Z,21.52
2019-04-10T13:07:45.539Z,20.72
2019-04-10T13:10:15.235Z,20.48
2019-04-10T13:12:45.242Z,20.68
2019-04-10T13:15:15.185Z,20.15
2019-04-10T13:17:44.816Z,21.02
2019-04-10T13:20:15.607Z,23.62
2019-04-10T13:22:45.037Z,22.55
2019-04-10T13:25:14.795Z,20.02
2019-04-10T13:27:45.147Z,19.85
2019-04-10T13:30:14.980Z,18.65
2019-04-10T13:32:45.385Z,21.70
2019-04-10T13:35:15.793Z,22.80
2019-04-10T13:37:45.548Z,18.62
2019-04-10T13:40:15.393Z,20.25
2019-04-10T13:42:45.393Z,21.33
2019-04-10T13:45:17.460Z,21.07
2019-04-10T13:47:48.158Z,21.37
2019-04-10T13:50:18.951Z,24.98
2019-04-10T13:52:52.259Z,21.02
2019-04-10T13:55:21.196Z,20.30
2019-04-10T13:57:50.857Z,21.82
2019-04-10T14:00:39.953Z,19.57
2019-04-10T14:03:09.891Z,21.62
2019-04-10T14:05:39.607Z,19.98
2019-04-10T14:08:14.611Z,21.73
2019-04-10T14:10:44.596Z,21.90
2019-04-10T14:13:14.014Z,21.60
2019-04-10T14:15:44.283Z,26.60
2019-04-10T14:18:14.397Z,20.55
2019-04-10T14:20:45.715Z,22.27
2019-04-10T14:23:20.011Z,24.72
2019-04-10T14:25:54.082Z,20.05
2019-04-10T14:28:25.114Z,22.48
2019-04-10T14:30:56.159Z,20.02
2019-04-10T14:33:26.250Z,21.02
2019-04-10T14:35:55.819Z,21.82
2019-04-10T14:38:25.348Z,22.20
2019-04-10T14:40:55.538Z,22.55
2019-04-10T14:43:26.008Z,22.95
2019-04-10T14:45:55.411Z,27.20
2019-04-10T14:48:24.801Z,20.43
2019-04-10T14:50:54.658Z,27.32
2019-04-10T14:53:24.886Z,26.60
2019-04-10T14:55:54.563Z,20.40
2019-04-10T14:58:28.927Z,26.85
2019-04-10T15:00:55.137Z,25.30
2019-04-10T15:03:24.509Z,24.57
2019-04-10T15:05:55.557Z,24.50
2019-04-10T15:08:25.957Z,24.43
2019-04-10T15:10:55.747Z,24.92
2019-04-10T15:13:25.837Z,22.48
2019-04-10T15:15:55.363Z,26.25
2019-04-10T15:18:24.675Z,24.65
2019-04-10T15:20:54.332Z,25.60
2019-04-10T15:23:23.769Z,24.12
2019-04-10T15:25:53.121Z,22.10
2019-04-10T15:28:23.247Z,25.52
2019-04-10T15:30:52.983Z,29.80
2019-04-10T15:33:22.546Z,21.35
2019-04-10T15:35:51.911Z,23.70
2019-04-10T15:38:21.996Z,20.02
2019-04-10T15:40:52.492Z,27.50
2019-04-10T15:43:23.904Z,22.17
2019-04-10T15:45:53.250Z,24.10
2019-04-10T15:48:22.996Z,23.75
2019-04-10T15:50:52.505Z,17.77
2019-04-10T15:53:22.349Z,23.05
2019-04-10T15:55:51.804Z,17.77
2019-04-10T15:58:21.534Z,14.00
2019-04-10T16:00:51.745Z,15.25
2019-04-10T16:03:21.822Z,13.40
2019-04-10T16:05:51.345Z,16.07
2019-04-10T16:08:21.911Z,19.20
2019-04-10T16:11:05.611Z,18.42
2019-04-10T16:13:46.366Z,16.12
2019-04-10T16:16:32.572Z,15.90
2019-04-10T16:19:04.235Z,16.25
2019-04-10T16:21:33.919Z,17.02
2019-04-10T16:24:04.979Z,16.05
2019-04-10T16:26:35.593Z,17.48
2019-04-10T16:29:05.382Z,18.05
2019-04-10T16:31:35.504Z,16.67
2019-04-10T16:34:07.086Z,23.47
2019-04-10T16:36:37.413Z,16.07
2019-04-10T16:39:09.938Z,17.10
2019-04-10T16:41:39.581Z,16.82
2019-04-10T16:44:09.011Z,20.10
2019-04-10T16:46:38.400Z,18.25
2019-04-10T16:49:08.549Z,16.12
2019-04-10T16:51:38.542Z,18.80
2019-04-10T16:54:08.364Z,16.30
2019-04-10T16:56:38.089Z,18.75
2019-04-10T16:59:08.527Z,24.85
2019-04-10T17:01:39.152Z,17.60
2019-04-10T17:04:09.097Z,18.75
2019-04-10T17:06:38.694Z,20.12
2019-04-10T17:09:10.252Z,19.67
2019-04-10T17:11:40.948Z,22.42
2019-04-10T17:14:11.024Z,19.73
2019-04-10T17:16:40.413Z,17.85
2019-04-10T17:19:09.876Z,21.87
2019-04-10T17:21:40.390Z,24.27
2019-04-10T17:24:11.175Z,19.73
2019-04-10T17:26:41.288Z,17.32
2019-04-10T17:29:10.753Z,23.73
2019-04-10T17:31:40.441Z,20.62
2019-04-10T17:34:10.344Z,21.45
2019-04-10T17:36:40.984Z,28.45
2019-04-10T17:39:13.263Z,24.27
2019-04-10T17:41:43.861Z,25.00
2019-04-10T17:44:13.726Z,24.75
2019-04-10T17:46:55.595Z,22.48
2019-04-10T17:49:25.625Z,24.77
2019-04-10T17:51:56.490Z,21.25
2019-04-10T17:54:26.823Z,29.55
2019-04-10T17:56:57.056Z,24.05
2019-04-10T17:59:26.733Z,22.85
2019-04-10T18:01:59.085Z,23.05
2019-04-10T18:04:29.707Z,24.45
2019-04-10T18:06:59.629Z,22.55
2019-04-10T18:09:30.385Z,22.95
2019-04-10T18:12:00.982Z,23.00
2019-04-10T18:14:31.319Z,25.23
2019-04-10T18:17:00.829Z,24.15
2019-04-10T18:19:30.334Z,26.52
2019-04-10T18:22:00.493Z,27.00
2019-04-10T18:24:30.410Z,22.95
2019-04-10T18:27:01.149Z,25.05
2019-04-10T18:29:30.958Z,21.85
2019-04-10T18:32:02.307Z,23.05
2019-04-10T18:34:33.269Z,26.42
2019-04-10T18:37:04.431Z,27.13
2019-04-10T18:39:34.624Z,28.38
2019-04-10T18:42:05.537Z,30.17
2019-04-10T18:44:35.256Z,26.80
2019-04-10T18:47:04.921Z,30.48
2019-04-10T18:49:34.316Z,28.85
2019-04-10T18:52:03.757Z,30.05
2019-04-10T18:54:34.011Z,29.55
2019-04-10T18:57:03.490Z,30.62
2019-04-10T18:59:49.544Z,30.32
2019-04-10T19:02:28.761Z,36.28
2019-04-10T19:05:05.610Z,32.55
2019-04-10T19:07:35.090Z,34.55
2019-04-10T19:10:06.284Z,32.53
2019-04-10T19:12:36.863Z,34.67
2019-04-10T19:15:08.323Z,35.92
2019-04-10T19:17:37.874Z,32.65
2019-04-10T19:20:08.928Z,43.28
2019-04-10T19:22:38.755Z,37.53
2019-04-10T19:25:08.393Z,39.70
2019-04-10T19:27:37.715Z,38.85
2019-04-10T19:30:10.751Z,40.20
2019-04-10T19:32:41.490Z,43.87
2019-04-10T19:35:11.259Z,37.88
2019-04-10T19:37:40.879Z,35.78
2019-04-10T19:40:11.168Z,33.45
2019-04-10T19:42:41.776Z,34.38
2019-04-10T19:45:11.978Z,36.98
2019-04-10T19:47:42.263Z,37.20
2019-04-10T19:50:12.984Z,32.20
2019-04-10T19:52:42.516Z,37.67
2019-04-10T19:55:12.109Z,46.65
2019-04-10T19:57:41.624Z,60.63
2019-04-10T20:00:12.505Z,59.00
2019-04-10T20:02:41.995Z,58.38
2019-04-10T20:05:12.778Z,54.70
2019-04-10T20:07:43.064Z,55.43
2019-04-10T20:10:13.068Z,47.83
2019-04-10T20:12:42.635Z,39.10
2019-04-10T20:15:12.306Z,32.80
2019-04-10T20:17:42.707Z,35.08
2019-04-10T20:20:13.165Z,36.30
2019-04-10T20:22:43.831Z,30.30
2019-04-10T20:25:14.299Z,34.65
2019-04-10T20:27:44.543Z,29.55
2019-04-10T20:30:15.325Z,33.78
2019-04-10T20:32:46.032Z,34.60
2019-04-10T20:35:16.152Z,38.78
2019-04-10T20:37:45.660Z,34.38
2019-04-10T20:40:15.841Z,38.35
2019-04-10T20:42:46.665Z,39.95
2019-04-10T20:45:16.074Z,43.85
2019-04-10T20:47:45.408Z,39.10
2019-04-10T20:50:15.422Z,38.15
2019-04-10T20:52:45.309Z,32.33
2019-04-10T20:55:14.729Z,36.58
2019-04-10T20:57:44.102Z,37.00
2019-04-10T21:00:22.330Z,36.35
2019-04-10T21:02:52.934Z,33.38
2019-04-10T21:05:22.359Z,31.20
2019-04-10T21:07:52.316Z,26.70
2019-04-10T21:10:21.662Z,26.70
2019-04-10T21:12:50.996Z,25.57
2019-04-10T21:15:21.495Z,28.15
2019-04-10T21:17:50.933Z,27.30
2019-04-10T21:20:20.416Z,25.88
2019-04-10T21:22:49.818Z,27.58
2019-04-10T21:25:21.123Z,25.45
2019-04-10T21:27:52.104Z,25.60
2019-04-10T21:30:29.309Z,23.80
2019-04-10T21:33:03.865Z,28.12
2019-04-10T21:35:35.076Z,23.02
2019-04-10T21:38:04.855Z,27.32
2019-04-10T21:40:34.812Z,29.92
2019-04-10T21:43:04.351Z,24.07
2019-04-10T21:45:35.008Z,21.70
2019-04-10T21:48:04.564Z,27.13
2019-04-10T21:50:33.893Z,24.40
2019-04-10T21:53:03.936Z,24.15
2019-04-10T21:55:33.503Z,21.10
2019-04-10T21:58:03.827Z,20.80
2019-04-10T22:00:52.651Z,20.25
2019-04-10T22:03:23.148Z,20.88
2019-04-10T22:06:11.372Z,19.45
2019-04-10T22:08:45.698Z,19.98
2019-04-10T22:11:15.163Z,19.98
2019-04-10T22:13:46.530Z,19.23
2019-04-10T22:16:17.853Z,19.87
2019-04-10T22:18:47.873Z,18.40
2019-04-10T22:21:17.321Z,18.67
2019-04-10T22:23:46.950Z,21.07
2019-04-10T22:26:16.353Z,22.58
2019-04-10T22:28:45.745Z,19.73
2019-04-10T22:31:15.810Z,21.93
2019-04-10T22:33:45.268Z,18.05
2019-04-10T22:36:14.981Z,15.38
2019-04-10T22:38:44.437Z,21.62
2019-04-10T22:41:23.757Z,19.07
2019-04-10T22:43:44.999Z,17.23
2019-04-10T22:46:15.149Z,16.42
2019-04-10T22:48:45.526Z,15.30
2019-04-10T22:51:15.123Z,15.13
2019-04-10T22:53:44.421Z,14.07
2019-04-10T22:56:13.746Z,14.90
2019-04-10T22:58:44.108Z,13.40
2019-04-10T23:01:13.588Z,15.23
2019-04-10T23:03:43.284Z,14.73
2019-04-10T23:06:13.741Z,14.23
2019-04-10T23:08:44.046Z,13.80
2019-04-10T23:11:13.565Z,13.78
2019-04-10T23:13:42.941Z,11.88
2019-04-10T23:16:15.307Z,13.98
2019-04-10T23:18:43.526Z,15.50
2019-04-10T23:21:12.943Z,12.35
2019-04-10T23:23:43.250Z,13.38
2019-04-10T23:26:13.322Z,13.13
2019-04-10T23:28:43.988Z,13.62
2019-04-10T23:31:13.393Z,11.90
2019-04-10T23:33:42.689Z,13.38
2019-04-10T23:36:11.992Z,14.78
2019-04-10T23:38:41.774Z,14.15
2019-04-10T23:41:11.592Z,13.75
2019-04-10T23:43:42.090Z,13.70
2019-04-10T23:46:12.693Z,16.17
2019-04-10T23:48:42.166Z,17.55
2019-04-10T23:51:12.603Z,12.23
2019-04-10T23:53:42.094Z,13.35
2019-04-10T23:56:11.462Z,14.53
2019-04-10T23:58:40.878Z,14.78
